EZY269 EGKK-EDDS
Flight info
| Callsign | EZY269 |
|---|---|
| Flight time | N/A |
| Altitude | 39000 |
| Route | ODVIK Y311 DVR UL9 KONAN UL607 MATUG DCT EMGOD L607 UBIDU L984 RUDUS Z738 UBENO N850 KRH T128 BADSO BADSO2A |
| Aircraft | A20N/M-SDE2E3FGHIRWXY/LB1 |
Departure
| Time | N/A |
|---|---|
| Airport | London Gatwick Airport (EGKK) |
Arrival
| Time | 2026-05-05 18:55 |
|---|---|
| Airport | Stuttgart Airport (EDDS) |
| Time | Latitude | Longitude | Altitude | Speed | Heading |
|---|---|---|---|---|---|
| 2026-05-05 18:05 | 50.68742 | 4.78499 | 34854 ft | 330 kts | 111° |
| 2026-05-05 18:05 | 50.67390 | 4.85436 | 34856 ft | 330 kts | 111° |
| 2026-05-05 18:06 | 50.66038 | 4.92339 | 34854 ft | 330 kts | 111° |
| 2026-05-05 18:06 | 50.64639 | 4.99198 | 34854 ft | 330 kts | 112° |
| 2026-05-05 18:07 | 50.63217 | 5.06079 | 34856 ft | 330 kts | 111° |
| 2026-05-05 18:07 | 50.61805 | 5.12914 | 34837 ft | 329 kts | 112° |
| 2026-05-05 18:08 | 50.60381 | 5.19789 | 34853 ft | 329 kts | 112° |
| 2026-05-05 18:08 | 50.58951 | 5.26650 | 34850 ft | 329 kts | 112° |
| 2026-05-05 18:09 | 50.57531 | 5.33474 | 34852 ft | 329 kts | 112° |
| 2026-05-05 18:09 | 50.56108 | 5.40294 | 34843 ft | 329 kts | 112° |
| 2026-05-05 18:10 | 50.54675 | 5.47125 | 34842 ft | 329 kts | 112° |
| 2026-05-05 18:10 | 50.53233 | 5.53973 | 34843 ft | 329 kts | 112° |
| 2026-05-05 18:11 | 50.51795 | 5.60786 | 34838 ft | 324 kts | 112° |
| 2026-05-05 18:11 | 50.50377 | 5.67467 | 34840 ft | 323 kts | 112° |
| 2026-05-05 18:12 | 50.48955 | 5.74152 | 34838 ft | 324 kts | 112° |
| 2026-05-05 18:12 | 50.47522 | 5.80868 | 34836 ft | 323 kts | 112° |
| 2026-05-05 18:13 | 50.46086 | 5.87576 | 34836 ft | 324 kts | 112° |
| 2026-05-05 18:13 | 50.45261 | 5.90824 | 34834 ft | 320 kts | 124° |
| 2026-05-05 18:13 | 50.43935 | 5.93638 | 34824 ft | 318 kts | 131° |
| 2026-05-05 18:14 | 50.41172 | 5.99013 | 34825 ft | 318 kts | 131° |
| 2026-05-05 18:14 | 50.38370 | 6.04403 | 34826 ft | 318 kts | 131° |
| 2026-05-05 18:15 | 50.35577 | 6.09759 | 34806 ft | 318 kts | 131° |
| 2026-05-05 18:15 | 50.32784 | 6.15102 | 34809 ft | 318 kts | 131° |
| 2026-05-05 18:16 | 50.29971 | 6.20471 | 34806 ft | 318 kts | 131° |
| 2026-05-05 18:16 | 50.27171 | 6.25803 | 34810 ft | 318 kts | 131° |
| 2026-05-05 18:17 | 50.24356 | 6.31151 | 34799 ft | 318 kts | 131° |
| 2026-05-05 18:17 | 50.21551 | 6.36472 | 34794 ft | 318 kts | 131° |
| 2026-05-05 18:18 | 50.18727 | 6.41818 | 34791 ft | 318 kts | 131° |
| 2026-05-05 18:18 | 50.15911 | 6.47140 | 34788 ft | 318 kts | 131° |
| 2026-05-05 18:19 | 50.13100 | 6.52437 | 34774 ft | 318 kts | 131° |
| 2026-05-05 18:19 | 50.10274 | 6.57754 | 34812 ft | 318 kts | 131° |
| 2026-05-05 18:20 | 50.07458 | 6.63040 | 34799 ft | 318 kts | 131° |
| 2026-05-05 18:20 | 50.04628 | 6.68343 | 34797 ft | 318 kts | 131° |
| 2026-05-05 18:21 | 50.01798 | 6.73634 | 34812 ft | 318 kts | 131° |
| 2026-05-05 18:21 | 49.98974 | 6.78903 | 34823 ft | 319 kts | 131° |
| 2026-05-05 18:22 | 49.96117 | 6.84222 | 34786 ft | 321 kts | 131° |
| 2026-05-05 18:22 | 49.93252 | 6.89551 | 34697 ft | 322 kts | 131° |
| 2026-05-05 18:22 | 49.91803 | 6.92238 | 34309 ft | 324 kts | 131° |
| 2026-05-05 18:23 | 49.90348 | 6.94932 | 33714 ft | 328 kts | 131° |
| 2026-05-05 18:23 | 49.88891 | 6.97629 | 33029 ft | 331 kts | 131° |
| 2026-05-05 18:23 | 49.87398 | 7.00391 | 32370 ft | 334 kts | 130° |
| 2026-05-05 18:23 | 49.85895 | 7.03168 | 31705 ft | 337 kts | 130° |
| 2026-05-05 18:24 | 49.84393 | 7.05941 | 31065 ft | 340 kts | 130° |
| 2026-05-05 18:24 | 49.82863 | 7.08761 | 30455 ft | 343 kts | 130° |
| 2026-05-05 18:24 | 49.81323 | 7.11598 | 29835 ft | 345 kts | 130° |
| 2026-05-05 18:24 | 49.79771 | 7.14453 | 29119 ft | 346 kts | 130° |
| 2026-05-05 18:25 | 49.78214 | 7.17317 | 28424 ft | 348 kts | 130° |
| 2026-05-05 18:25 | 49.77175 | 7.19225 | 27970 ft | 349 kts | 130° |
| 2026-05-05 18:25 | 49.75070 | 7.23086 | 27080 ft | 351 kts | 130° |
| 2026-05-05 18:25 | 49.73511 | 7.25946 | 26431 ft | 352 kts | 131° |
| 2026-05-05 18:26 | 49.71921 | 7.28858 | 25799 ft | 353 kts | 131° |
| 2026-05-05 18:26 | 49.70332 | 7.31763 | 25180 ft | 353 kts | 131° |
| 2026-05-05 18:26 | 49.68760 | 7.34633 | 24579 ft | 354 kts | 131° |
| 2026-05-05 18:26 | 49.67173 | 7.37529 | 23989 ft | 354 kts | 132° |
| 2026-05-05 18:27 | 49.65580 | 7.40432 | 23400 ft | 354 kts | 132° |
| 2026-05-05 18:27 | 49.63979 | 7.43346 | 22710 ft | 354 kts | 132° |
| 2026-05-05 18:27 | 49.62381 | 7.46250 | 22034 ft | 354 kts | 132° |
| 2026-05-05 18:27 | 49.60794 | 7.49132 | 21389 ft | 354 kts | 132° |
| 2026-05-05 18:28 | 49.57613 | 7.54900 | 20011 ft | 348 kts | 132° |
| 2026-05-05 18:28 | 49.56068 | 7.57697 | 19285 ft | 344 kts | 132° |
| 2026-05-05 18:28 | 49.54522 | 7.60492 | 18569 ft | 341 kts | 132° |
| 2026-05-05 18:29 | 49.52983 | 7.63270 | 17817 ft | 338 kts | 132° |
| 2026-05-05 18:29 | 49.51465 | 7.66014 | 17017 ft | 335 kts | 133° |
| 2026-05-05 18:29 | 49.49972 | 7.68707 | 16244 ft | 332 kts | 133° |
| 2026-05-05 18:29 | 49.48471 | 7.71408 | 15481 ft | 330 kts | 133° |
| 2026-05-05 18:30 | 49.46987 | 7.74077 | 14741 ft | 328 kts | 133° |
| 2026-05-05 18:30 | 49.45506 | 7.76739 | 14017 ft | 326 kts | 133° |
| 2026-05-05 18:30 | 49.44033 | 7.79383 | 13268 ft | 324 kts | 133° |
| 2026-05-05 18:30 | 49.42587 | 7.81974 | 12484 ft | 321 kts | 133° |
| 2026-05-05 18:31 | 49.41138 | 7.84570 | 11723 ft | 318 kts | 133° |
| 2026-05-05 18:31 | 49.39780 | 7.87183 | 11362 ft | 305 kts | 123° |
| 2026-05-05 18:31 | 49.38836 | 7.89992 | 11263 ft | 289 kts | 118° |
| 2026-05-05 18:31 | 49.37995 | 7.92727 | 11154 ft | 277 kts | 118° |
| 2026-05-05 18:32 | 49.37190 | 7.95355 | 11042 ft | 265 kts | 118° |
| 2026-05-05 18:32 | 49.36423 | 7.97819 | 10986 ft | 251 kts | 119° |
| 2026-05-05 18:32 | 49.35683 | 8.00157 | 10979 ft | 233 kts | 120° |
| 2026-05-05 18:32 | 49.34976 | 8.02360 | 10994 ft | 239 kts | 120° |
| 2026-05-05 18:33 | 49.34171 | 8.04814 | 10988 ft | 267 kts | 120° |
| 2026-05-05 18:33 | 49.33354 | 8.07330 | 10988 ft | 267 kts | 120° |
| 2026-05-05 18:33 | 49.32505 | 8.09948 | 10997 ft | 281 kts | 120° |
| 2026-05-05 18:33 | 49.31638 | 8.12627 | 10995 ft | 277 kts | 120° |
| 2026-05-05 18:34 | 49.30777 | 8.15283 | 10994 ft | 279 kts | 120° |
| 2026-05-05 18:34 | 49.29908 | 8.17965 | 10995 ft | 279 kts | 120° |
| 2026-05-05 18:34 | 49.29053 | 8.20596 | 10993 ft | 279 kts | 120° |
| 2026-05-05 18:34 | 49.28186 | 8.23259 | 10995 ft | 279 kts | 120° |
| 2026-05-05 18:35 | 49.27319 | 8.25919 | 10997 ft | 279 kts | 120° |
| 2026-05-05 18:35 | 49.26448 | 8.28588 | 10992 ft | 279 kts | 120° |
| 2026-05-05 18:35 | 49.25577 | 8.31255 | 10994 ft | 279 kts | 120° |
| 2026-05-05 18:35 | 49.24707 | 8.33912 | 10992 ft | 279 kts | 120° |
| 2026-05-05 18:36 | 49.23845 | 8.36544 | 10994 ft | 279 kts | 120° |
| 2026-05-05 18:36 | 49.22972 | 8.39207 | 10996 ft | 279 kts | 120° |
| 2026-05-05 18:36 | 49.22098 | 8.41871 | 10994 ft | 279 kts | 120° |
| 2026-05-05 18:36 | 49.21235 | 8.44501 | 10987 ft | 281 kts | 120° |
| 2026-05-05 18:37 | 49.20351 | 8.47187 | 10998 ft | 283 kts | 120° |
| 2026-05-05 18:37 | 49.19469 | 8.49868 | 10997 ft | 282 kts | 120° |
| 2026-05-05 18:37 | 49.18582 | 8.52560 | 10996 ft | 282 kts | 120° |
| 2026-05-05 18:37 | 49.17697 | 8.55245 | 11001 ft | 282 kts | 121° |
| 2026-05-05 18:38 | 49.16812 | 8.57928 | 10997 ft | 282 kts | 121° |
| 2026-05-05 18:38 | 49.15924 | 8.60613 | 11002 ft | 282 kts | 121° |
| 2026-05-05 18:38 | 49.15039 | 8.63287 | 10994 ft | 282 kts | 121° |
| 2026-05-05 18:38 | 49.14163 | 8.65934 | 11002 ft | 282 kts | 121° |
| 2026-05-05 18:39 | 49.13271 | 8.68625 | 10993 ft | 283 kts | 121° |
| 2026-05-05 18:39 | 49.12376 | 8.71318 | 10922 ft | 284 kts | 121° |
| 2026-05-05 18:39 | 49.11492 | 8.73977 | 10589 ft | 284 kts | 121° |
| 2026-05-05 18:39 | 49.10589 | 8.76694 | 10222 ft | 283 kts | 121° |
| 2026-05-05 18:40 | 49.09711 | 8.79333 | 9867 ft | 281 kts | 121° |
| 2026-05-05 18:40 | 49.08826 | 8.81988 | 9433 ft | 280 kts | 121° |
| 2026-05-05 18:40 | 49.07952 | 8.84611 | 9248 ft | 270 kts | 121° |
| 2026-05-05 18:40 | 49.07129 | 8.87089 | 9140 ft | 260 kts | 121° |
| 2026-05-05 18:41 | 49.06295 | 8.89581 | 9040 ft | 264 kts | 121° |
| 2026-05-05 18:41 | 49.05458 | 8.92072 | 8884 ft | 263 kts | 121° |
| 2026-05-05 18:41 | 49.04624 | 8.94557 | 8470 ft | 266 kts | 121° |
| 2026-05-05 18:41 | 49.04062 | 8.96226 | 8129 ft | 269 kts | 121° |
| 2026-05-05 18:42 | 49.03198 | 8.98798 | 7630 ft | 273 kts | 121° |
| 2026-05-05 18:42 | 49.02324 | 9.01396 | 7135 ft | 277 kts | 121° |
| 2026-05-05 18:42 | 49.01442 | 9.04027 | 6645 ft | 280 kts | 121° |
| 2026-05-05 18:42 | 49.00561 | 9.06649 | 6330 ft | 270 kts | 121° |
| 2026-05-05 18:43 | 48.99749 | 9.09086 | 6228 ft | 254 kts | 121° |
| 2026-05-05 18:43 | 48.98972 | 9.11432 | 6120 ft | 243 kts | 121° |
| 2026-05-05 18:43 | 48.98217 | 9.13726 | 6017 ft | 242 kts | 120° |
| 2026-05-05 18:43 | 48.97466 | 9.15993 | 5999 ft | 241 kts | 121° |
| 2026-05-05 18:44 | 48.96709 | 9.18278 | 6002 ft | 242 kts | 121° |
| 2026-05-05 18:44 | 48.95950 | 9.20567 | 5999 ft | 242 kts | 121° |
| 2026-05-05 18:44 | 48.95193 | 9.22854 | 6000 ft | 241 kts | 121° |
| 2026-05-05 18:44 | 48.94439 | 9.25137 | 5994 ft | 242 kts | 121° |
| 2026-05-05 18:45 | 48.93681 | 9.27452 | 6001 ft | 243 kts | 121° |
| 2026-05-05 18:45 | 48.92936 | 9.29736 | 5988 ft | 243 kts | 121° |
| 2026-05-05 18:45 | 48.92191 | 9.32043 | 5981 ft | 244 kts | 121° |
| 2026-05-05 18:45 | 48.91374 | 9.34314 | 5753 ft | 240 kts | 130° |
| 2026-05-05 18:46 | 48.90366 | 9.36284 | 5467 ft | 237 kts | 134° |
| 2026-05-05 18:46 | 48.89334 | 9.38241 | 5209 ft | 236 kts | 134° |
| 2026-05-05 18:46 | 48.88304 | 9.40189 | 5079 ft | 237 kts | 134° |
| 2026-05-05 18:46 | 48.87280 | 9.42118 | 5013 ft | 236 kts | 134° |
| 2026-05-05 18:47 | 48.86246 | 9.44064 | 5005 ft | 236 kts | 134° |
| 2026-05-05 18:47 | 48.85211 | 9.46012 | 5010 ft | 236 kts | 134° |
| 2026-05-05 18:47 | 48.84215 | 9.47895 | 5004 ft | 224 kts | 134° |
| 2026-05-05 18:47 | 48.83220 | 9.49769 | 5013 ft | 229 kts | 134° |
| 2026-05-05 18:48 | 48.82026 | 9.51214 | 5014 ft | 208 kts | 161° |
| 2026-05-05 18:48 | 48.80776 | 9.52022 | 5007 ft | 186 kts | 163° |
| 2026-05-05 18:48 | 48.79555 | 9.52797 | 4927 ft | 193 kts | 163° |
| 2026-05-05 18:48 | 48.78318 | 9.53576 | 4600 ft | 192 kts | 163° |
| 2026-05-05 18:49 | 48.77061 | 9.54139 | 4257 ft | 180 kts | 182° |
| 2026-05-05 18:49 | 48.75886 | 9.53756 | 4156 ft | 171 kts | 213° |
| 2026-05-05 18:49 | 48.75060 | 9.52619 | 4044 ft | 153 kts | 236° |
| 2026-05-05 18:49 | 48.74591 | 9.51320 | 4014 ft | 126 kts | 247° |
| 2026-05-05 18:50 | 48.74273 | 9.50004 | 4009 ft | 135 kts | 251° |
| 2026-05-05 18:50 | 48.73996 | 9.48633 | 4005 ft | 135 kts | 253° |
| 2026-05-05 18:50 | 48.73732 | 9.47245 | 4015 ft | 139 kts | 253° |
| 2026-05-05 18:50 | 48.73468 | 9.45853 | 4001 ft | 137 kts | 253° |
| 2026-05-05 18:51 | 48.73208 | 9.44480 | 3900 ft | 138 kts | 253° |
| 2026-05-05 18:51 | 48.72950 | 9.43121 | 3713 ft | 131 kts | 253° |
| 2026-05-05 18:51 | 48.72697 | 9.41781 | 3543 ft | 133 kts | 253° |
| 2026-05-05 18:51 | 48.72440 | 9.40423 | 3364 ft | 133 kts | 253° |
| 2026-05-05 18:52 | 48.72184 | 9.39069 | 3192 ft | 134 kts | 253° |
| 2026-05-05 18:52 | 48.71931 | 9.37732 | 3015 ft | 134 kts | 253° |
| 2026-05-05 18:52 | 48.71672 | 9.36365 | 2828 ft | 135 kts | 253° |
| 2026-05-05 18:52 | 48.71410 | 9.34975 | 2727 ft | 134 kts | 254° |
| 2026-05-05 18:53 | 48.71180 | 9.33703 | 2577 ft | 125 kts | 253° |
| 2026-05-05 18:53 | 48.70921 | 9.32412 | 2399 ft | 131 kts | 252° |
| 2026-05-05 18:53 | 48.70656 | 9.31079 | 2216 ft | 136 kts | 253° |
| 2026-05-05 18:53 | 48.70400 | 9.29679 | 2013 ft | 140 kts | 254° |
| 2026-05-05 18:54 | 48.70132 | 9.28234 | 1837 ft | 141 kts | 253° |
| 2026-05-05 18:54 | 48.69861 | 9.26803 | 1638 ft | 144 kts | 252° |
| 2026-05-05 18:54 | 48.69585 | 9.25346 | 1471 ft | 144 kts | 251° |
| 2026-05-05 18:54 | 48.69314 | 9.23919 | 1305 ft | 137 kts | 252° |
| 2026-05-05 18:55 | 48.69080 | 9.22687 | 1285 ft | 98 kts | 254° |
| 2026-05-05 18:55 | 48.68942 | 9.21952 | 1287 ft | 50 kts | 254° |
| 2026-05-05 18:55 | 48.68876 | 9.21607 | 1287 ft | 31 kts | 254° |
| 2026-05-05 18:55 | 48.68821 | 9.21282 | 1289 ft | 30 kts | 264° |
| 2026-05-05 18:56 | 48.68836 | 9.20977 | 1288 ft | 24 kts | 284° |
| 2026-05-05 18:56 | 48.68861 | 9.20826 | 1289 ft | 0 kts | 284° |